sensor_id;sensor_type;location;lat;lon;timestamp;P1;durP1;ratioP1;P2;durP2;ratioP2
40959;SDS011;27842;52.272;8.052;2024-02-23T00:01:36;7.40;;;1.10;;
40959;SDS011;27842;52.272;8.052;2024-02-23T00:04:01;2.72;;;0.95;;
40959;SDS011;27842;52.272;8.052;2024-02-23T00:06:27;9.75;;;1.90;;
40959;SDS011;27842;52.272;8.052;2024-02-23T00:08:53;6.18;;;1.30;;
40959;SDS011;27842;52.272;8.052;2024-02-23T00:11:20;6.00;;;1.20;;
40959;SDS011;27842;52.272;8.052;2024-02-23T00:13:45;2.25;;;0.98;;
40959;SDS011;27842;52.272;8.052;2024-02-23T00:16:11;3.95;;;1.52;;
40959;SDS011;27842;52.272;8.052;2024-02-23T00:18:37;6.28;;;1.50;;
40959;SDS011;27842;52.272;8.052;2024-02-23T00:21:03;2.70;;;0.77;;
40959;SDS011;27842;52.272;8.052;2024-02-23T00:23:29;1.40;;;0.82;;
40959;SDS011;27842;52.272;8.052;2024-02-23T00:25:54;1.83;;;0.88;;
40959;SDS011;27842;52.272;8.052;2024-02-23T00:28:20;1.05;;;0.60;;
40959;SDS011;27842;52.272;8.052;2024-02-23T00:30:45;0.80;;;0.70;;
40959;SDS011;27842;52.272;8.052;2024-02-23T00:33:11;9.45;;;3.08;;
40959;SDS011;27842;52.272;8.052;2024-02-23T00:35:36;9.00;;;2.97;;
40959;SDS011;27842;52.272;8.052;2024-02-23T00:38:02;4.05;;;1.35;;
40959;SDS011;27842;52.272;8.052;2024-02-23T00:40:27;1.90;;;0.98;;
40959;SDS011;27842;52.272;8.052;2024-02-23T00:42:53;0.40;;;0.40;;
40959;SDS011;27842;52.272;8.052;2024-02-23T00:45:19;1.52;;;0.60;;
40959;SDS011;27842;52.272;8.052;2024-02-23T00:47:44;1.23;;;0.68;;
40959;SDS011;27842;52.272;8.052;2024-02-23T00:50:12;0.57;;;0.57;;
40959;SDS011;27842;52.272;8.052;2024-02-23T00:52:37;1.13;;;0.50;;
40959;SDS011;27842;52.272;8.052;2024-02-23T00:55:03;0.60;;;0.60;;
40959;SDS011;27842;52.272;8.052;2024-02-23T00:57:29;1.67;;;0.57;;
40959;SDS011;27842;52.272;8.052;2024-02-23T00:59:58;1.30;;;0.60;;
40959;SDS011;27842;52.272;8.052;2024-02-23T01:02:23;0.65;;;0.45;;
40959;SDS011;27842;52.272;8.052;2024-02-23T01:04:49;0.95;;;0.55;;
40959;SDS011;27842;52.272;8.052;2024-02-23T01:07:15;0.60;;;0.60;;
40959;SDS011;27842;52.272;8.052;2024-02-23T01:09:40;0.50;;;0.50;;
40959;SDS011;27842;52.272;8.052;2024-02-23T01:12:06;0.80;;;0.63;;
40959;SDS011;27842;52.272;8.052;2024-02-23T01:14:31;0.60;;;0.60;;
40959;SDS011;27842;52.272;8.052;2024-02-23T01:16:57;2.43;;;0.70;;
40959;SDS011;27842;52.272;8.052;2024-02-23T01:19:22;0.50;;;0.50;;
40959;SDS011;27842;52.272;8.052;2024-02-23T01:21:51;0.55;;;0.55;;
40959;SDS011;27842;52.272;8.052;2024-02-23T01:24:24;1.20;;;0.80;;
40959;SDS011;27842;52.272;8.052;2024-02-23T01:26:52;0.67;;;0.60;;
40959;SDS011;27842;52.272;8.052;2024-02-23T01:29:19;0.93;;;0.83;;
40959;SDS011;27842;52.272;8.052;2024-02-23T01:31:44;0.90;;;0.90;;
40959;SDS011;27842;52.272;8.052;2024-02-23T01:34:10;1.23;;;0.70;;
40959;SDS011;27842;52.272;8.052;2024-02-23T01:36:35;2.13;;;0.80;;
40959;SDS011;27842;52.272;8.052;2024-02-23T01:39:02;1.40;;;0.63;;
40959;SDS011;27842;52.272;8.052;2024-02-23T01:41:28;1.43;;;0.80;;
40959;SDS011;27842;52.272;8.052;2024-02-23T01:43:54;0.70;;;0.70;;
40959;SDS011;27842;52.272;8.052;2024-02-23T01:46:19;0.67;;;0.67;;
40959;SDS011;27842;52.272;8.052;2024-02-23T01:48:45;2.50;;;0.83;;
40959;SDS011;27842;52.272;8.052;2024-02-23T01:51:11;1.37;;;0.70;;
40959;SDS011;27842;52.272;8.052;2024-02-23T01:53:37;2.07;;;0.80;;
40959;SDS011;27842;52.272;8.052;2024-02-23T01:56:04;2.83;;;1.00;;
40959;SDS011;27842;52.272;8.052;2024-02-23T01:58:30;2.43;;;1.00;;
40959;SDS011;27842;52.272;8.052;2024-02-23T02:00:58;4.90;;;1.47;;
40959;SDS011;27842;52.272;8.052;2024-02-23T02:03:23;3.80;;;1.10;;
40959;SDS011;27842;52.272;8.052;2024-02-23T02:05:49;1.57;;;1.10;;
40959;SDS011;27842;52.272;8.052;2024-02-23T02:08:16;2.10;;;1.03;;
40959;SDS011;27842;52.272;8.052;2024-02-23T02:10:42;3.13;;;1.73;;
40959;SDS011;27842;52.272;8.052;2024-02-23T02:13:08;4.60;;;1.40;;
40959;SDS011;27842;52.272;8.052;2024-02-23T02:15:33;3.40;;;1.20;;
40959;SDS011;27842;52.272;8.052;2024-02-23T02:17:59;4.43;;;1.40;;
40959;SDS011;27842;52.272;8.052;2024-02-23T02:20:25;2.47;;;1.10;;
40959;SDS011;27842;52.272;8.052;2024-02-23T02:22:52;3.50;;;1.20;;
40959;SDS011;27842;52.272;8.052;2024-02-23T02:25:18;2.20;;;1.20;;
40959;SDS011;27842;52.272;8.052;2024-02-23T02:27:43;2.83;;;1.37;;
40959;SDS011;27842;52.272;8.052;2024-02-23T02:30:10;5.77;;;1.57;;
40959;SDS011;27842;52.272;8.052;2024-02-23T02:32:37;6.43;;;1.60;;
40959;SDS011;27842;52.272;8.052;2024-02-23T02:35:02;3.67;;;1.50;;
40959;SDS011;27842;52.272;8.052;2024-02-23T02:37:28;4.50;;;1.63;;
40959;SDS011;27842;52.272;8.052;2024-02-23T02:39:54;2.20;;;1.47;;
40959;SDS011;27842;52.272;8.052;2024-02-23T02:42:19;5.30;;;1.90;;
40959;SDS011;27842;52.272;8.052;2024-02-23T02:44:45;4.30;;;1.67;;
40959;SDS011;27842;52.272;8.052;2024-02-23T02:47:10;6.67;;;2.43;;
40959;SDS011;27842;52.272;8.052;2024-02-23T02:49:36;4.87;;;1.90;;
40959;SDS011;27842;52.272;8.052;2024-02-23T02:52:02;5.73;;;2.10;;
40959;SDS011;27842;52.272;8.052;2024-02-23T02:54:27;6.20;;;2.03;;
40959;SDS011;27842;52.272;8.052;2024-02-23T02:56:53;5.17;;;2.10;;
40959;SDS011;27842;52.272;8.052;2024-02-23T02:59:19;6.07;;;2.03;;
40959;SDS011;27842;52.272;8.052;2024-02-23T03:01:45;4.97;;;2.07;;
40959;SDS011;27842;52.272;8.052;2024-02-23T03:04:12;4.73;;;2.10;;
40959;SDS011;27842;52.272;8.052;2024-02-23T03:06:37;6.87;;;2.23;;
40959;SDS011;27842;52.272;8.052;2024-02-23T03:09:03;6.47;;;2.43;;
40959;SDS011;27842;52.272;8.052;2024-02-23T03:11:29;10.53;;;2.63;;
40959;SDS011;27842;52.272;8.052;2024-02-23T03:13:55;8.47;;;2.90;;
40959;SDS011;27842;52.272;8.052;2024-02-23T03:16:21;7.30;;;2.70;;
40959;SDS011;27842;52.272;8.052;2024-02-23T03:18:51;5.83;;;2.10;;
40959;SDS011;27842;52.272;8.052;2024-02-23T03:21:17;4.87;;;2.43;;
40959;SDS011;27842;52.272;8.052;2024-02-23T03:23:42;8.53;;;2.17;;
40959;SDS011;27842;52.272;8.052;2024-02-23T03:26:08;7.20;;;2.30;;
40959;SDS011;27842;52.272;8.052;2024-02-23T03:28:33;8.40;;;2.43;;
40959;SDS011;27842;52.272;8.052;2024-02-23T03:31:02;8.57;;;1.93;;
40959;SDS011;27842;52.272;8.052;2024-02-23T03:33:28;7.72;;;2.15;;
40959;SDS011;27842;52.272;8.052;2024-02-23T03:35:53;9.13;;;2.13;;
40959;SDS011;27842;52.272;8.052;2024-02-23T03:38:20;11.80;;;2.60;;
40959;SDS011;27842;52.272;8.052;2024-02-23T03:40:46;8.10;;;1.90;;
40959;SDS011;27842;52.272;8.052;2024-02-23T03:43:11;6.93;;;2.10;;
40959;SDS011;27842;52.272;8.052;2024-02-23T03:45:37;4.67;;;2.10;;
40959;SDS011;27842;52.272;8.052;2024-02-23T03:48:03;8.67;;;2.37;;
40959;SDS011;27842;52.272;8.052;2024-02-23T03:50:29;9.80;;;1.80;;
40959;SDS011;27842;52.272;8.052;2024-02-23T03:52:55;10.20;;;2.47;;
40959;SDS011;27842;52.272;8.052;2024-02-23T03:55:20;9.73;;;2.00;;
40959;SDS011;27842;52.272;8.052;2024-02-23T03:57:47;5.87;;;1.93;;
40959;SDS011;27842;52.272;8.052;2024-02-23T04:00:12;6.77;;;1.80;;
40959;SDS011;27842;52.272;8.052;2024-02-23T04:02:38;9.10;;;2.07;;
40959;SDS011;27842;52.272;8.052;2024-02-23T04:05:05;9.30;;;1.70;;
40959;SDS011;27842;52.272;8.052;2024-02-23T04:07:31;7.50;;;1.80;;
40959;SDS011;27842;52.272;8.052;2024-02-23T04:09:56;7.13;;;2.23;;
40959;SDS011;27842;52.272;8.052;2024-02-23T04:12:22;7.90;;;1.60;;
40959;SDS011;27842;52.272;8.052;2024-02-23T04:14:47;8.13;;;1.87;;
40959;SDS011;27842;52.272;8.052;2024-02-23T04:17:13;4.80;;;1.30;;
40959;SDS011;27842;52.272;8.052;2024-02-23T04:19:40;5.30;;;1.73;;
40959;SDS011;27842;52.272;8.052;2024-02-23T04:22:06;7.83;;;1.50;;
40959;SDS011;27842;52.272;8.052;2024-02-23T04:24:36;11.60;;;2.03;;
40959;SDS011;27842;52.272;8.052;2024-02-23T04:27:04;11.10;;;1.93;;
40959;SDS011;27842;52.272;8.052;2024-02-23T04:29:30;5.47;;;1.37;;
40959;SDS011;27842;52.272;8.052;2024-02-23T04:31:57;9.20;;;1.40;;
40959;SDS011;27842;52.272;8.052;2024-02-23T04:34:23;7.33;;;1.67;;
40959;SDS011;27842;52.272;8.052;2024-02-23T04:36:48;13.63;;;1.93;;
40959;SDS011;27842;52.272;8.052;2024-02-23T04:39:14;10.03;;;1.60;;
40959;SDS011;27842;52.272;8.052;2024-02-23T04:41:39;8.93;;;1.67;;
40959;SDS011;27842;52.272;8.052;2024-02-23T04:44:05;7.80;;;1.70;;
40959;SDS011;27842;52.272;8.052;2024-02-23T04:46:30;9.77;;;1.97;;
40959;SDS011;27842;52.272;8.052;2024-02-23T04:48:56;9.97;;;1.90;;
40959;SDS011;27842;52.272;8.052;2024-02-23T04:51:22;6.10;;;1.67;;
40959;SDS011;27842;52.272;8.052;2024-02-23T04:53:50;6.27;;;1.60;;
40959;SDS011;27842;52.272;8.052;2024-02-23T04:56:15;9.73;;;2.10;;
40959;SDS011;27842;52.272;8.052;2024-02-23T04:58:41;6.80;;;1.77;;
40959;SDS011;27842;52.272;8.052;2024-02-23T05:01:07;8.67;;;2.17;;
40959;SDS011;27842;52.272;8.052;2024-02-23T05:03:33;8.93;;;1.80;;
40959;SDS011;27842;52.272;8.052;2024-02-23T05:05:59;7.17;;;1.80;;
40959;SDS011;27842;52.272;8.052;2024-02-23T05:08:25;9.17;;;2.07;;
40959;SDS011;27842;52.272;8.052;2024-02-23T05:10:52;9.50;;;2.00;;
40959;SDS011;27842;52.272;8.052;2024-02-23T05:13:18;7.37;;;1.87;;
40959;SDS011;27842;52.272;8.052;2024-02-23T05:15:43;10.17;;;2.00;;
40959;SDS011;27842;52.272;8.052;2024-02-23T05:18:09;7.40;;;2.07;;
40959;SDS011;27842;52.272;8.052;2024-02-23T05:20:35;5.73;;;1.80;;
40959;SDS011;27842;52.272;8.052;2024-02-23T05:23:00;7.07;;;1.70;;
40959;SDS011;27842;52.272;8.052;2024-02-23T05:25:26;9.87;;;1.80;;
40959;SDS011;27842;52.272;8.052;2024-02-23T05:27:52;10.63;;;1.90;;
40959;SDS011;27842;52.272;8.052;2024-02-23T05:30:17;5.03;;;1.53;;
40959;SDS011;27842;52.272;8.052;2024-02-23T05:32:43;7.53;;;1.70;;
40959;SDS011;27842;52.272;8.052;2024-02-23T05:35:09;10.87;;;1.93;;
40959;SDS011;27842;52.272;8.052;2024-02-23T05:37:35;4.87;;;1.73;;
40959;SDS011;27842;52.272;8.052;2024-02-23T05:40:01;8.43;;;2.30;;
40959;SDS011;27842;52.272;8.052;2024-02-23T05:42:31;8.53;;;2.00;;
40959;SDS011;27842;52.272;8.052;2024-02-23T05:44:57;7.60;;;2.13;;
40959;SDS011;27842;52.272;8.052;2024-02-23T05:47:23;10.00;;;1.90;;
40959;SDS011;27842;52.272;8.052;2024-02-23T05:49:49;8.07;;;2.07;;
40959;SDS011;27842;52.272;8.052;2024-02-23T05:52:15;12.77;;;2.20;;
40959;SDS011;27842;52.272;8.052;2024-02-23T05:54:41;7.33;;;2.13;;
40959;SDS011;27842;52.272;8.052;2024-02-23T05:57:07;10.53;;;2.40;;
40959;SDS011;27842;52.272;8.052;2024-02-23T05:59:32;10.83;;;2.33;;
40959;SDS011;27842;52.272;8.052;2024-02-23T06:01:58;10.97;;;2.50;;
40959;SDS011;27842;52.272;8.052;2024-02-23T06:04:23;8.80;;;1.93;;
40959;SDS011;27842;52.272;8.052;2024-02-23T06:06:49;9.03;;;2.10;;
40959;SDS011;27842;52.272;8.052;2024-02-23T06:09:15;8.83;;;2.50;;
40959;SDS011;27842;52.272;8.052;2024-02-23T06:11:41;7.37;;;2.30;;
40959;SDS011;27842;52.272;8.052;2024-02-23T06:14:07;11.93;;;2.87;;
40959;SDS011;27842;52.272;8.052;2024-02-23T06:16:33;11.67;;;2.30;;
40959;SDS011;27842;52.272;8.052;2024-02-23T06:18:59;8.83;;;2.10;;
40959;SDS011;27842;52.272;8.052;2024-02-23T06:21:25;10.43;;;2.07;;
40959;SDS011;27842;52.272;8.052;2024-02-23T06:23:51;10.87;;;1.97;;
40959;SDS011;27842;52.272;8.052;2024-02-23T06:26:17;7.97;;;1.90;;
40959;SDS011;27842;52.272;8.052;2024-02-23T06:28:43;6.30;;;1.80;;
40959;SDS011;27842;52.272;8.052;2024-02-23T06:31:09;5.43;;;1.60;;
40959;SDS011;27842;52.272;8.052;2024-02-23T06:33:35;8.60;;;2.27;;
40959;SDS011;27842;52.272;8.052;2024-02-23T06:36:01;9.60;;;1.73;;
40959;SDS011;27842;52.272;8.052;2024-02-23T06:38:28;9.23;;;2.40;;
40959;SDS011;27842;52.272;8.052;2024-02-23T06:40:53;7.37;;;1.63;;
40959;SDS011;27842;52.272;8.052;2024-02-23T06:43:20;10.10;;;1.97;;
40959;SDS011;27842;52.272;8.052;2024-02-23T06:45:46;10.63;;;2.07;;
40959;SDS011;27842;52.272;8.052;2024-02-23T06:48:11;5.80;;;1.60;;
40959;SDS011;27842;52.272;8.052;2024-02-23T06:50:37;7.73;;;1.70;;
40959;SDS011;27842;52.272;8.052;2024-02-23T06:53:02;6.60;;;1.73;;
40959;SDS011;27842;52.272;8.052;2024-02-23T06:55:28;8.10;;;1.53;;
40959;SDS011;27842;52.272;8.052;2024-02-23T06:57:54;8.07;;;1.70;;
40959;SDS011;27842;52.272;8.052;2024-02-23T07:00:22;6.23;;;1.90;;
40959;SDS011;27842;52.272;8.052;2024-02-23T07:02:50;10.40;;;2.83;;
40959;SDS011;27842;52.272;8.052;2024-02-23T07:05:16;10.90;;;2.27;;
40959;SDS011;27842;52.272;8.052;2024-02-23T07:07:42;8.43;;;2.07;;
40959;SDS011;27842;52.272;8.052;2024-02-23T07:10:07;10.50;;;1.60;;
40959;SDS011;27842;52.272;8.052;2024-02-23T07:12:33;8.10;;;1.57;;
40959;SDS011;27842;52.272;8.052;2024-02-23T07:15:00;8.17;;;1.70;;
40959;SDS011;27842;52.272;8.052;2024-02-23T07:17:25;13.17;;;2.13;;
40959;SDS011;27842;52.272;8.052;2024-02-23T07:19:51;9.67;;;1.83;;
40959;SDS011;27842;52.272;8.052;2024-02-23T07:22:18;7.77;;;1.60;;
40959;SDS011;27842;52.272;8.052;2024-02-23T07:24:45;8.57;;;1.63;;
40959;SDS011;27842;52.272;8.052;2024-02-23T07:27:10;12.60;;;1.90;;
40959;SDS011;27842;52.272;8.052;2024-02-23T07:29:36;7.90;;;1.30;;
40959;SDS011;27842;52.272;8.052;2024-02-23T07:32:02;8.27;;;1.83;;
40959;SDS011;27842;52.272;8.052;2024-02-23T07:34:27;10.20;;;2.13;;
40959;SDS011;27842;52.272;8.052;2024-02-23T07:36:53;9.13;;;1.60;;
40959;SDS011;27842;52.272;8.052;2024-02-23T07:39:19;8.43;;;1.50;;
40959;SDS011;27842;52.272;8.052;2024-02-23T07:41:46;6.80;;;1.67;;
40959;SDS011;27842;52.272;8.052;2024-02-23T07:44:12;7.23;;;1.60;;
40959;SDS011;27842;52.272;8.052;2024-02-23T07:46:38;9.40;;;1.80;;
40959;SDS011;27842;52.272;8.052;2024-02-23T07:49:04;11.43;;;1.67;;
40959;SDS011;27842;52.272;8.052;2024-02-23T07:51:31;8.73;;;1.40;;
40959;SDS011;27842;52.272;8.052;2024-02-23T07:53:56;10.47;;;1.50;;
40959;SDS011;27842;52.272;8.052;2024-02-23T07:56:22;9.30;;;1.47;;
40959;SDS011;27842;52.272;8.052;2024-02-23T07:58:48;8.37;;;1.83;;
40959;SDS011;27842;52.272;8.052;2024-02-23T08:01:14;8.50;;;1.60;;
40959;SDS011;27842;52.272;8.052;2024-02-23T08:03:40;9.33;;;1.67;;
40959;SDS011;27842;52.272;8.052;2024-02-23T08:06:06;8.00;;;1.90;;
40959;SDS011;27842;52.272;8.052;2024-02-23T08:08:32;9.00;;;1.80;;
40959;SDS011;27842;52.272;8.052;2024-02-23T08:11:00;9.87;;;1.73;;
40959;SDS011;27842;52.272;8.052;2024-02-23T08:13:27;9.03;;;1.57;;
40959;SDS011;27842;52.272;8.052;2024-02-23T08:15:52;12.87;;;2.77;;
40959;SDS011;27842;52.272;8.052;2024-02-23T08:18:18;12.03;;;1.67;;
40959;SDS011;27842;52.272;8.052;2024-02-23T08:20:44;10.73;;;1.60;;
40959;SDS011;27842;52.272;8.052;2024-02-23T08:23:09;6.17;;;1.50;;
40959;SDS011;27842;52.272;8.052;2024-02-23T08:25:35;6.00;;;1.27;;
40959;SDS011;27842;52.272;8.052;2024-02-23T08:28:01;9.63;;;1.60;;
40959;SDS011;27842;52.272;8.052;2024-02-23T08:30:27;10.27;;;2.17;;
40959;SDS011;27842;52.272;8.052;2024-02-23T08:32:53;9.83;;;1.50;;
40959;SDS011;27842;52.272;8.052;2024-02-23T08:35:19;9.37;;;1.87;;
40959;SDS011;27842;52.272;8.052;2024-02-23T08:37:45;9.33;;;1.80;;
40959;SDS011;27842;52.272;8.052;2024-02-23T08:40:11;9.70;;;1.50;;
40959;SDS011;27842;52.272;8.052;2024-02-23T08:42:37;8.73;;;1.73;;
40959;SDS011;27842;52.272;8.052;2024-02-23T08:45:03;8.83;;;1.50;;
40959;SDS011;27842;52.272;8.052;2024-02-23T08:47:29;10.07;;;1.60;;
40959;SDS011;27842;52.272;8.052;2024-02-23T08:49:58;7.50;;;1.63;;
40959;SDS011;27842;52.272;8.052;2024-02-23T08:52:24;14.07;;;1.60;;
40959;SDS011;27842;52.272;8.052;2024-02-23T08:54:50;6.90;;;1.70;;
40959;SDS011;27842;52.272;8.052;2024-02-23T08:57:16;7.17;;;1.80;;
40959;SDS011;27842;52.272;8.052;2024-02-23T08:59:44;4.90;;;1.30;;
40959;SDS011;27842;52.272;8.052;2024-02-23T09:02:11;5.23;;;1.20;;
40959;SDS011;27842;52.272;8.052;2024-02-23T09:04:36;10.53;;;1.90;;
40959;SDS011;27842;52.272;8.052;2024-02-23T09:07:02;13.47;;;1.93;;
40959;SDS011;27842;52.272;8.052;2024-02-23T09:09:28;7.90;;;1.57;;
40959;SDS011;27842;52.272;8.052;2024-02-23T09:11:55;6.47;;;1.53;;
40959;SDS011;27842;52.272;8.052;2024-02-23T09:14:22;8.63;;;1.73;;
40959;SDS011;27842;52.272;8.052;2024-02-23T09:16:48;9.43;;;1.53;;
40959;SDS011;27842;52.272;8.052;2024-02-23T09:19:16;11.83;;;1.97;;
40959;SDS011;27842;52.272;8.052;2024-02-23T09:21:42;9.43;;;1.50;;
40959;SDS011;27842;52.272;8.052;2024-02-23T09:24:07;8.43;;;1.80;;
40959;SDS011;27842;52.272;8.052;2024-02-23T09:26:33;8.40;;;1.80;;
40959;SDS011;27842;52.272;8.052;2024-02-23T09:29:00;11.50;;;2.10;;
40959;SDS011;27842;52.272;8.052;2024-02-23T09:31:26;10.17;;;1.80;;
40959;SDS011;27842;52.272;8.052;2024-02-23T09:33:53;9.47;;;1.60;;
40959;SDS011;27842;52.272;8.052;2024-02-23T09:38:48;7.20;;;1.47;;
40959;SDS011;27842;52.272;8.052;2024-02-23T09:41:17;8.70;;;1.60;;
40959;SDS011;27842;52.272;8.052;2024-02-23T09:43:46;10.23;;;2.00;;
40959;SDS011;27842;52.272;8.052;2024-02-23T09:46:13;9.60;;;1.73;;
40959;SDS011;27842;52.272;8.052;2024-02-23T09:48:39;4.30;;;1.50;;
40959;SDS011;27842;52.272;8.052;2024-02-23T09:51:07;8.07;;;1.80;;
40959;SDS011;27842;52.272;8.052;2024-02-23T09:53:36;10.03;;;1.73;;
40959;SDS011;27842;52.272;8.052;2024-02-23T09:56:02;6.37;;;1.63;;
40959;SDS011;27842;52.272;8.052;2024-02-23T09:58:33;7.73;;;1.57;;
40959;SDS011;27842;52.272;8.052;2024-02-23T10:01:01;9.80;;;1.70;;
40959;SDS011;27842;52.272;8.052;2024-02-23T10:03:28;8.80;;;1.50;;
40959;SDS011;27842;52.272;8.052;2024-02-23T10:05:55;5.00;;;1.20;;
40959;SDS011;27842;52.272;8.052;2024-02-23T10:08:21;5.80;;;2.07;;
40959;SDS011;27842;52.272;8.052;2024-02-23T10:10:47;7.97;;;1.70;;
40959;SDS011;27842;52.272;8.052;2024-02-23T10:13:17;7.47;;;1.70;;
40959;SDS011;27842;52.272;8.052;2024-02-23T10:15:47;9.60;;;2.00;;
40959;SDS011;27842;52.272;8.052;2024-02-23T10:18:13;8.43;;;1.70;;
40959;SDS011;27842;52.272;8.052;2024-02-23T10:20:40;5.80;;;1.40;;
40959;SDS011;27842;52.272;8.052;2024-02-23T10:23:05;6.60;;;1.60;;
40959;SDS011;27842;52.272;8.052;2024-02-23T10:25:35;6.67;;;1.37;;
40959;SDS011;27842;52.272;8.052;2024-02-23T10:28:02;12.63;;;1.57;;
40959;SDS011;27842;52.272;8.052;2024-02-23T10:30:29;10.47;;;1.87;;
40959;SDS011;27842;52.272;8.052;2024-02-23T10:32:56;7.93;;;1.60;;
40959;SDS011;27842;52.272;8.052;2024-02-23T10:35:22;7.90;;;2.07;;
40959;SDS011;27842;52.272;8.052;2024-02-23T10:37:49;9.87;;;1.60;;
40959;SDS011;27842;52.272;8.052;2024-02-23T10:40:16;5.03;;;1.53;;
40959;SDS011;27842;52.272;8.052;2024-02-23T10:42:46;8.37;;;1.80;;
40959;SDS011;27842;52.272;8.052;2024-02-23T10:45:16;8.20;;;1.50;;
40959;SDS011;27842;52.272;8.052;2024-02-23T10:47:46;10.17;;;2.77;;
40959;SDS011;27842;52.272;8.052;2024-02-23T10:50:13;10.07;;;1.50;;
40959;SDS011;27842;52.272;8.052;2024-02-23T10:52:42;13.80;;;1.67;;
40959;SDS011;27842;52.272;8.052;2024-02-23T10:55:08;10.68;;;1.65;;
40959;SDS011;27842;52.272;8.052;2024-02-23T10:57:35;10.50;;;1.70;;
40959;SDS011;27842;52.272;8.052;2024-02-23T11:00:01;5.93;;;1.53;;
40959;SDS011;27842;52.272;8.052;2024-02-23T11:02:30;7.10;;;1.30;;
40959;SDS011;27842;52.272;8.052;2024-02-23T11:07:50;7.10;;;1.47;;
40959;SDS011;27842;52.272;8.052;2024-02-23T11:10:16;4.33;;;1.20;;
40959;SDS011;27842;52.272;8.052;2024-02-23T11:12:43;6.53;;;1.43;;
40959;SDS011;27842;52.272;8.052;2024-02-23T11:15:28;9.30;;;1.80;;
40959;SDS011;27842;52.272;8.052;2024-02-23T11:17:54;11.13;;;1.93;;
40959;SDS011;27842;52.272;8.052;2024-02-23T11:20:23;6.97;;;1.87;;
40959;SDS011;27842;52.272;8.052;2024-02-23T11:22:58;11.97;;;2.00;;
40959;SDS011;27842;52.272;8.052;2024-02-23T11:25:26;9.30;;;1.80;;
40959;SDS011;27842;52.272;8.052;2024-02-23T11:27:52;5.53;;;1.30;;
40959;SDS011;27842;52.272;8.052;2024-02-23T11:30:18;10.50;;;2.10;;
40959;SDS011;27842;52.272;8.052;2024-02-23T11:32:44;7.57;;;1.53;;
40959;SDS011;27842;52.272;8.052;2024-02-23T11:35:13;9.63;;;1.55;;
40959;SDS011;27842;52.272;8.052;2024-02-23T11:38:13;7.97;;;2.40;;
40959;SDS011;27842;52.272;8.052;2024-02-23T11:40:34;6.50;;;1.70;;
40959;SDS011;27842;52.272;8.052;2024-02-23T11:43:00;11.83;;;2.00;;
40959;SDS011;27842;52.272;8.052;2024-02-23T11:45:30;7.60;;;1.60;;
40959;SDS011;27842;52.272;8.052;2024-02-23T11:47:56;13.40;;;2.90;;
40959;SDS011;27842;52.272;8.052;2024-02-23T11:50:21;8.40;;;1.90;;
40959;SDS011;27842;52.272;8.052;2024-02-23T11:52:47;8.10;;;1.90;;
40959;SDS011;27842;52.272;8.052;2024-02-23T11:55:17;6.57;;;1.90;;
40959;SDS011;27842;52.272;8.052;2024-02-23T11:57:47;10.57;;;2.43;;
40959;SDS011;27842;52.272;8.052;2024-02-23T12:00:13;9.37;;;1.93;;
40959;SDS011;27842;52.272;8.052;2024-02-23T12:02:40;7.90;;;1.57;;
40959;SDS011;27842;52.272;8.052;2024-02-23T12:05:09;9.40;;;2.20;;
40959;SDS011;27842;52.272;8.052;2024-02-23T12:07:36;5.72;;;1.58;;
40959;SDS011;27842;52.272;8.052;2024-02-23T12:10:01;11.98;;;2.38;;
40959;SDS011;27842;52.272;8.052;2024-02-23T12:12:29;8.50;;;1.70;;
40959;SDS011;27842;52.272;8.052;2024-02-23T12:14:55;8.93;;;1.65;;
40959;SDS011;27842;52.272;8.052;2024-02-23T12:17:20;6.85;;;1.73;;
40959;SDS011;27842;52.272;8.052;2024-02-23T12:19:49;9.40;;;1.65;;
40959;SDS011;27842;52.272;8.052;2024-02-23T12:22:15;6.60;;;1.98;;
40959;SDS011;27842;52.272;8.052;2024-02-23T12:24:41;8.75;;;1.50;;
40959;SDS011;27842;52.272;8.052;2024-02-23T12:27:06;8.38;;;2.03;;
40959;SDS011;27842;52.272;8.052;2024-02-23T12:29:32;7.90;;;1.38;;
40959;SDS011;27842;52.272;8.052;2024-02-23T12:32:04;4.80;;;1.40;;
40959;SDS011;27842;52.272;8.052;2024-02-23T12:34:31;6.05;;;1.45;;
40959;SDS011;27842;52.272;8.052;2024-02-23T12:36:57;7.07;;;1.25;;
40959;SDS011;27842;52.272;8.052;2024-02-23T12:39:22;11.30;;;1.83;;
40959;SDS011;27842;52.272;8.052;2024-02-23T12:41:48;4.97;;;1.45;;
40959;SDS011;27842;52.272;8.052;2024-02-23T12:44:13;8.43;;;1.48;;
40959;SDS011;27842;52.272;8.052;2024-02-23T12:46:39;6.30;;;1.30;;
40959;SDS011;27842;52.272;8.052;2024-02-23T12:49:05;9.55;;;2.53;;
40959;SDS011;27842;52.272;8.052;2024-02-23T12:51:30;5.00;;;1.85;;
40959;SDS011;27842;52.272;8.052;2024-02-23T12:53:56;13.23;;;3.03;;
40959;SDS011;27842;52.272;8.052;2024-02-23T12:56:22;7.70;;;1.90;;
40959;SDS011;27842;52.272;8.052;2024-02-23T12:58:50;4.40;;;1.40;;
40959;SDS011;27842;52.272;8.052;2024-02-23T13:01:16;6.85;;;1.30;;
40959;SDS011;27842;52.272;8.052;2024-02-23T13:03:42;6.53;;;1.50;;
40959;SDS011;27842;52.272;8.052;2024-02-23T13:06:07;8.63;;;1.75;;
40959;SDS011;27842;52.272;8.052;2024-02-23T13:08:33;7.55;;;1.60;;
40959;SDS011;27842;52.272;8.052;2024-02-23T13:10:59;6.20;;;1.20;;
40959;SDS011;27842;52.272;8.052;2024-02-23T13:13:25;8.73;;;1.90;;
40959;SDS011;27842;52.272;8.052;2024-02-23T13:15:51;6.45;;;1.50;;
40959;SDS011;27842;52.272;8.052;2024-02-23T13:18:18;12.48;;;2.47;;
40959;SDS011;27842;52.272;8.052;2024-02-23T13:20:47;8.15;;;1.75;;
40959;SDS011;27842;52.272;8.052;2024-02-23T13:23:13;5.95;;;1.60;;
40959;SDS011;27842;52.272;8.052;2024-02-23T13:25:40;6.97;;;1.25;;
40959;SDS011;27842;52.272;8.052;2024-02-23T13:28:07;10.70;;;1.63;;
40959;SDS011;27842;52.272;8.052;2024-02-23T13:30:34;8.45;;;1.40;;
40959;SDS011;27842;52.272;8.052;2024-02-23T13:33:00;5.75;;;1.50;;
40959;SDS011;27842;52.272;8.052;2024-02-23T13:35:26;6.82;;;1.35;;
40959;SDS011;27842;52.272;8.052;2024-02-23T13:37:52;6.30;;;1.45;;
40959;SDS011;27842;52.272;8.052;2024-02-23T13:40:18;7.07;;;1.25;;
40959;SDS011;27842;52.272;8.052;2024-02-23T13:42:43;7.60;;;2.00;;
40959;SDS011;27842;52.272;8.052;2024-02-23T13:45:17;7.78;;;2.03;;
40959;SDS011;27842;52.272;8.052;2024-02-23T13:47:54;5.95;;;1.50;;
40959;SDS011;27842;52.272;8.052;2024-02-23T13:50:25;12.93;;;3.03;;
40959;SDS011;27842;52.272;8.052;2024-02-23T13:52:50;4.53;;;1.55;;
40959;SDS011;27842;52.272;8.052;2024-02-23T13:55:17;6.55;;;1.55;;
40959;SDS011;27842;52.272;8.052;2024-02-23T13:57:43;9.88;;;2.00;;
40959;SDS011;27842;52.272;8.052;2024-02-23T14:00:09;7.97;;;1.70;;
40959;SDS011;27842;52.272;8.052;2024-02-23T14:02:37;7.00;;;1.85;;
40959;SDS011;27842;52.272;8.052;2024-02-23T14:05:05;8.88;;;2.25;;
40959;SDS011;27842;52.272;8.052;2024-02-23T14:07:32;7.30;;;1.50;;
40959;SDS011;27842;52.272;8.052;2024-02-23T14:09:58;5.13;;;2.05;;
40959;SDS011;27842;52.272;8.052;2024-02-23T14:12:23;8.27;;;1.83;;
40959;SDS011;27842;52.272;8.052;2024-02-23T14:14:49;7.10;;;1.52;;
40959;SDS011;27842;52.272;8.052;2024-02-23T14:17:15;7.95;;;1.65;;
40959;SDS011;27842;52.272;8.052;2024-02-23T14:19:40;5.55;;;1.30;;
40959;SDS011;27842;52.272;8.052;2024-02-23T14:22:06;4.38;;;1.27;;
40959;SDS011;27842;52.272;8.052;2024-02-23T14:24:32;7.85;;;1.60;;
40959;SDS011;27842;52.272;8.052;2024-02-23T14:26:57;5.07;;;1.40;;
40959;SDS011;27842;52.272;8.052;2024-02-23T14:29:23;4.13;;;1.70;;
40959;SDS011;27842;52.272;8.052;2024-02-23T14:31:48;5.90;;;1.67;;
40959;SDS011;27842;52.272;8.052;2024-02-23T14:34:14;7.00;;;1.60;;
40959;SDS011;27842;52.272;8.052;2024-02-23T14:36:40;5.17;;;1.80;;
40959;SDS011;27842;52.272;8.052;2024-02-23T14:39:05;7.13;;;1.40;;
40959;SDS011;27842;52.272;8.052;2024-02-23T14:41:31;7.55;;;1.77;;
40959;SDS011;27842;52.272;8.052;2024-02-23T14:43:56;3.13;;;1.30;;
40959;SDS011;27842;52.272;8.052;2024-02-23T14:46:22;4.97;;;1.60;;